Time;durP1;ratioP1;P1;durP2;ratioP2;P2;SDS_P1;SDS_P2;PMS_P1;PMS_P2;Temp;Humidity;BMP_temperature;BMP_pressure;BME280_temperature;BME280_humidity;BME280_pressure;Samples;Min_cycle;Max_cycle;Signal;HPM_P1;HPM_P2
2022/07/18 00:00:51;;;;;;;;;;;;;;;15.73;74.47;99703.47;5010870;28;19935;-67
2022/07/18 00:03:17;;;;;;;;;;;;;;;15.72;74.00;99693.56;5025794;28;19929;-66
2022/07/18 00:05:42;;;;;;;;;;;;;;;15.72;74.11;99691.59;5027507;28;20467;-66
2022/07/18 00:08:08;;;;;;;;;;;;;;;15.71;73.99;99691.94;5025845;28;19929;-66
2022/07/18 00:10:34;;;;;;;;;;;;;;;15.72;74.05;99688.84;5028223;28;19935;-66
2022/07/18 00:13:00;;;;;;;;;;;;;;;15.72;74.07;99694.38;5009207;28;20383;-66
2022/07/18 00:15:26;;;;;;;;;;;;;;;15.74;74.15;99694.06;4993990;28;19929;-66
2022/07/18 00:17:53;;;;;;;;;;;;;;;15.73;74.37;99690.47;5027042;28;20414;-66
2022/07/18 00:20:19;;;;;;;;;;;;;;;15.77;74.20;99690.69;5026321;28;19929;-66
2022/07/18 00:22:44;;;;;;;;;;;;;;;15.77;74.34;99689.88;4991226;28;19929;-67
2022/07/18 00:25:10;;;;;;;;;;;;;;;15.61;74.27;99662.69;5009927;28;19996;-66
2022/07/18 00:27:36;;;;;;;;;;;;;;;15.78;74.14;99683.25;5028892;28;19975;-65
2022/07/18 00:30:02;;;;;;;;;;;;;;;15.78;74.14;99686.00;5025148;28;19929;-66
2022/07/18 00:32:29;;;;;;;;;;;;;;;15.80;74.08;99692.00;5009332;28;20404;-66
2022/07/18 00:34:56;;;;;;;;;;;;;;;15.78;73.94;99689.56;5009232;28;19929;-65
2022/07/18 00:37:22;;;;;;;;;;;;;;;15.76;73.80;99696.50;5010570;28;19929;-65
2022/07/18 00:39:48;;;;;;;;;;;;;;;15.75;73.32;99690.19;5007349;28;19928;-63
2022/07/18 00:42:13;;;;;;;;;;;;;;;15.73;73.17;99693.25;5026626;28;19991;-65
2022/07/18 00:44:39;;;;;;;;;;;;;;;15.73;72.99;99689.69;5028532;28;20475;-65
2022/07/18 00:47:05;;;;;;;;;;;;;;;15.73;73.00;99696.00;5009169;28;19936;-64
2022/07/18 00:49:31;;;;;;;;;;;;;;;15.73;72.61;99689.69;5006274;28;20033;-64
2022/07/18 00:51:58;;;;;;;;;;;;;;;15.73;72.97;99687.72;4988592;28;20450;-66
2022/07/18 00:54:24;;;;;;;;;;;;;;;15.77;72.90;99692.63;4988979;28;19936;-66
2022/07/18 00:56:50;;;;;;;;;;;;;;;15.78;72.57;99688.75;4989291;28;20413;-67
2022/07/18 00:59:16;;;;;;;;;;;;;;;15.78;72.47;99694.25;5007125;28;20473;-65
2022/07/18 01:01:48;;;;;;;;;;;;;;;15.77;72.79;99690.69;4989607;28;19929;-66
2022/07/18 01:04:16;;;;;;;;;;;;;;;15.77;72.79;99689.88;4987407;28;19964;-65
2022/07/18 01:06:42;;;;;;;;;;;;;;;15.78;72.66;99688.75;4990202;28;20028;-71
2022/07/18 01:09:09;;;;;;;;;;;;;;;15.80;72.68;99689.25;4990820;28;20023;-65
2022/07/18 01:11:35;;;;;;;;;;;;;;;15.81;72.74;99688.91;4974882;28;20431;-66
2022/07/18 01:14:01;;;;;;;;;;;;;;;15.82;72.75;99690.53;4990393;28;19934;-67
2022/07/18 01:16:27;;;;;;;;;;;;;;;15.84;72.44;99687.50;4991846;28;19933;-66
2022/07/18 01:18:53;;;;;;;;;;;;;;;15.84;72.28;99687.50;5008698;28;20020;-67
2022/07/18 01:21:20;;;;;;;;;;;;;;;15.84;72.13;99688.31;5007298;28;19965;-64
2022/07/18 01:23:45;;;;;;;;;;;;;;;15.87;72.27;99684.09;5005689;28;19937;-66
2022/07/18 01:26:12;;;;;;;;;;;;;;;15.89;72.07;99681.88;4989585;28;19933;-65
2022/07/18 01:28:38;;;;;;;;;;;;;;;15.88;71.82;99682.97;5008468;28;19936;-65
2022/07/18 01:31:03;;;;;;;;;;;;;;;15.86;72.02;99683.31;5009336;28;19929;-64
2022/07/18 01:33:30;;;;;;;;;;;;;;;15.86;71.97;99683.31;4988394;28;19929;-66
2022/07/18 01:35:57;;;;;;;;;;;;;;;15.87;71.77;99684.09;5003603;28;19976;-67
2022/07/18 01:38:24;;;;;;;;;;;;;;;15.88;71.81;99685.72;5006205;28;19992;-64
2022/07/18 01:40:50;;;;;;;;;;;;;;;15.90;72.02;99690.97;4990419;28;19933;-65
2022/07/18 01:43:16;;;;;;;;;;;;;;;15.90;72.09;99690.97;4987292;28;19936;-64
2022/07/18 01:45:41;;;;;;;;;;;;;;;15.91;71.83;99682.38;5008525;28;19933;-65
2022/07/18 01:48:07;;;;;;;;;;;;;;;15.94;71.69;99686.44;5007582;28;19957;-66
2022/07/18 01:50:33;;;;;;;;;;;;;;;15.94;71.38;99681.75;5007627;28;20462;-66
2022/07/18 01:52:59;;;;;;;;;;;;;;;15.95;71.36;99680.63;5005671;28;20028;-64
2022/07/18 01:55:26;;;;;;;;;;;;;;;15.97;71.24;99677.53;4991244;28;19929;-66
2022/07/18 01:57:52;;;;;;;;;;;;;;;16.00;71.20;99669.47;4972596;28;19933;-66
2022/07/18 02:00:17;;;;;;;;;;;;;;;16.01;71.03;99682.13;5006333;28;19936;-66
2022/07/18 02:02:43;;;;;;;;;;;;;;;16.02;71.36;99678.25;4999250;28;19990;-66
2022/07/18 02:05:09;;;;;;;;;;;;;;;16.02;71.48;99675.47;5006962;28;19929;-66
2022/07/18 02:07:35;;;;;;;;;;;;;;;16.02;71.32;99661.69;5025459;28;19933;-65
2022/07/18 02:10:04;;;;;;;;;;;;;;;16.05;71.50;99664.94;5024819;28;19987;-65
2022/07/18 02:12:31;;;;;;;;;;;;;;;16.04;71.27;99664.16;4998998;28;19964;-66
2022/07/18 02:14:57;;;;;;;;;;;;;;;16.05;71.42;99663.00;5006234;28;19936;-67
2022/07/18 02:17:22;;;;;;;;;;;;;;;16.07;71.31;99674.53;4987894;28;19929;-65
2022/07/18 02:19:48;;;;;;;;;;;;;;;16.08;71.26;99667.91;5005735;28;20121;-65
2022/07/18 02:22:14;;;;;;;;;;;;;;;16.10;71.26;99673.09;5003455;28;20339;-64
2022/07/18 02:24:40;;;;;;;;;;;;;;;16.12;70.91;99668.09;5005780;28;19988;-65
2022/07/18 02:27:06;;;;;;;;;;;;;;;16.14;71.34;99663.06;5025064;28;20350;-65
2022/07/18 02:29:33;;;;;;;;;;;;;;;16.17;70.96;99665.19;5026017;28;19987;-65
2022/07/18 02:31:59;;;;;;;;;;;;;;;16.19;71.00;99660.16;5006377;28;19928;-64
2022/07/18 02:34:25;;;;;;;;;;;;;;;16.23;71.03;99654.84;5024054;28;19936;-66
2022/07/18 02:36:50;;;;;;;;;;;;;;;16.25;70.90;99658.09;5022787;28;19929;-65
2022/07/18 02:39:16;;;;;;;;;;;;;;;16.27;70.45;99661.34;5005089;28;20311;-66
2022/07/18 02:41:42;;;;;;;;;;;;;;;16.30;70.51;99657.94;5011134;28;19929;-66
2022/07/18 02:44:08;;;;;;;;;;;;;;;16.36;70.32;99664.13;5022057;28;19929;-66
2022/07/18 02:46:35;;;;;;;;;;;;;;;16.41;70.09;99659.31;5003508;28;19936;-65
2022/07/18 02:49:01;;;;;;;;;;;;;;;16.49;69.65;99656.91;5005706;28;19936;-64
2022/07/18 02:51:27;;;;;;;;;;;;;;;16.54;69.77;99660.31;5006063;28;19933;-66
2022/07/18 02:53:52;;;;;;;;;;;;;;;16.60;69.37;99658.22;4987901;28;20392;-65
2022/07/18 02:56:18;;;;;;;;;;;;;;;16.65;69.45;99660.88;5006135;28;19930;-65
2022/07/18 02:58:44;;;;;;;;;;;;;;;16.70;69.15;99668.16;4987880;28;20036;-66
2022/07/18 03:01:10;;;;;;;;;;;;;;;16.74;69.14;99655.38;5004852;28;20020;-64
2022/07/18 03:03:37;;;;;;;;;;;;;;;16.80;68.71;99659.59;5003635;28;20016;-64
2022/07/18 03:06:03;;;;;;;;;;;;;;;16.83;68.12;99664.47;4988173;28;19961;-65
2022/07/18 03:08:29;;;;;;;;;;;;;;;16.85;67.41;99662.22;4989748;28;19988;-64
2022/07/18 03:10:55;;;;;;;;;;;;;;;16.84;67.18;99660.59;5005534;28;19929;-65
2022/07/18 03:13:21;;;;;;;;;;;;;;;16.85;67.09;99664.19;5005944;28;19937;-64
2022/07/18 03:15:46;;;;;;;;;;;;;;;16.91;67.10;99660.13;5006211;28;20355;-65
2022/07/18 03:18:12;;;;;;;;;;;;;;;16.93;66.54;99662.56;5003769;28;19941;-65
2022/07/18 03:20:39;;;;;;;;;;;;;;;16.93;66.45;99668.88;5005792;28;19983;-64
2022/07/18 03:23:05;;;;;;;;;;;;;;;16.89;66.59;99670.69;4986128;28;19942;-65
2022/07/18 03:25:31;;;;;;;;;;;;;;;16.90;66.67;99671.50;5008177;28;19933;-64
2022/07/18 03:27:57;;;;;;;;;;;;;;;16.90;66.86;99665.97;5011558;28;19929;-65
2022/07/18 03:30:23;;;;;;;;;;;;;;;16.90;67.27;99665.97;4989747;28;19929;-63
2022/07/18 03:32:49;;;;;;;;;;;;;;;16.87;67.54;99661.91;5010786;28;20379;-65
2022/07/18 03:35:14;;;;;;;;;;;;;;;16.87;67.53;99667.44;5009036;28;20320;-64
2022/07/18 03:37:42;;;;;;;;;;;;;;;16.82;67.63;99668.38;4991708;28;19929;-64
2022/07/18 03:40:08;;;;;;;;;;;;;;;16.80;67.41;99658.81;4993086;28;20316;-65
2022/07/18 03:42:36;;;;;;;;;;;;;;;16.78;67.76;99659.13;4988903;28;20415;-65
2022/07/18 03:45:01;;;;;;;;;;;;;;;16.76;67.59;99664.16;5008517;28;19933;-64
2022/07/18 03:47:29;;;;;;;;;;;;;;;16.76;67.76;99675.19;4976581;28;19929;-65
2022/07/18 03:49:55;;;;;;;;;;;;;;;16.77;67.63;99664.94;5010220;28;19948;-66
2022/07/18 03:52:21;;;;;;;;;;;;;;;16.76;67.81;99669.66;5011354;28;20399;-65
2022/07/18 03:54:48;;;;;;;;;;;;;;;16.75;67.71;99673.56;4994106;28;20444;-66
2022/07/18 03:57:14;;;;;;;;;;;;;;;16.75;67.66;99673.56;4976917;28;19991;-66
2022/07/18 03:59:40;;;;;;;;;;;;;;;16.75;67.62;99667.22;4991386;28;19930;-66
2022/07/18 04:02:06;;;;;;;;;;;;;;;16.75;67.81;99667.22;5015974;28;19929;-66
2022/07/18 04:04:32;;;;;;;;;;;;;;;16.77;67.14;99673.22;5009052;28;19936;-65
2022/07/18 04:07:00;;;;;;;;;;;;;;;16.79;66.66;99673.75;5026901;28;19933;-64
2022/07/18 04:09:26;;;;;;;;;;;;;;;16.80;66.68;99667.09;5009839;28;19929;-65
2022/07/18 04:11:53;;;;;;;;;;;;;;;16.80;66.52;99665.13;5009491;28;19933;-65
2022/07/18 04:14:19;;;;;;;;;;;;;;;16.80;66.31;99664.34;5009827;28;19929;-67
2022/07/18 04:16:45;;;;;;;;;;;;;;;16.82;66.13;99665.63;5006396;28;20009;-66
2022/07/18 04:19:11;;;;;;;;;;;;;;;16.83;65.66;99667.25;4989255;28;20357;-66
2022/07/18 04:21:36;;;;;;;;;;;;;;;16.83;65.79;99670.00;4992970;28;19935;-64
2022/07/18 04:24:02;;;;;;;;;;;;;;;16.87;65.37;99668.25;4991888;28;19936;-64
2022/07/18 04:26:28;;;;;;;;;;;;;;;16.92;64.82;99669.22;4973188;28;20032;-65
2022/07/18 04:28:55;;;;;;;;;;;;;;;16.96;64.71;99671.03;4991250;28;19979;-66
2022/07/18 04:31:21;;;;;;;;;;;;;;;17.01;64.31;99678.38;5008366;28;19929;-66
2022/07/18 04:33:47;;;;;;;;;;;;;;;17.05;64.57;99673.84;5009763;28;20444;-67
2022/07/18 04:36:13;;;;;;;;;;;;;;;17.09;64.27;99674.00;5004325;28;19976;-66
2022/07/18 04:38:39;;;;;;;;;;;;;;;17.11;64.96;99667.03;5008905;28;20289;-65
2022/07/18 04:41:05;;;;;;;;;;;;;;;17.10;65.38;99667.38;4992544;28;19929;-66
2022/07/18 04:43:31;;;;;;;;;;;;;;;17.12;66.14;99662.31;5006945;28;19929;-66
2022/07/18 04:45:58;;;;;;;;;;;;;;;17.17;66.48;99661.34;5006903;28;19930;-66
2022/07/18 04:48:24;;;;;;;;;;;;;;;17.24;66.60;99658.94;5006892;28;19929;-66
2022/07/18 04:50:49;;;;;;;;;;;;;;;17.34;66.94;99658.63;5004346;28;19936;-66
2022/07/18 04:53:16;;;;;;;;;;;;;;;17.38;67.02;99647.72;5006271;28;19929;-66
2022/07/18 04:55:42;;;;;;;;;;;;;;;17.47;67.40;99658.75;4971114;28;19937;-66
2022/07/18 04:58:08;;;;;;;;;;;;;;;17.51;67.07;99654.22;4972225;28;19929;-66
2022/07/18 05:00:34;;;;;;;;;;;;;;;17.53;66.72;99661.03;5008164;28;19929;-66
2022/07/18 05:03:01;;;;;;;;;;;;;;;17.53;65.80;99665.78;4992625;28;19930;-66
2022/07/18 05:05:27;;;;;;;;;;;;;;;17.56;65.45;99665.13;5009161;28;20028;-66
2022/07/18 05:07:54;;;;;;;;;;;;;;;17.62;64.23;99666.56;5009467;28;19987;-64
2022/07/18 05:10:21;;;;;;;;;;;;;;;17.66;63.67;99659.28;5008133;28;19930;-67
2022/07/18 05:12:49;;;;;;;;;;;;;;;17.74;62.79;99659.56;5004884;28;19936;-65
2022/07/18 05:15:16;;;;;;;;;;;;;;;17.73;62.29;99658.78;5012485;28;19951;-65
2022/07/18 05:17:42;;;;;;;;;;;;;;;17.75;62.23;99666.72;5009858;28;19929;-64
2022/07/18 05:20:10;;;;;;;;;;;;;;;17.78;61.95;99666.91;5028284;28;19960;-65
2022/07/18 05:22:36;;;;;;;;;;;;;;;17.75;60.85;99673.09;5009606;28;19936;-64
2022/07/18 05:25:03;;;;;;;;;;;;;;;17.72;61.19;99671.78;4992636;28;20272;-65
2022/07/18 05:27:29;;;;;;;;;;;;;;;17.71;60.89;99675.69;5008635;28;19933;-63
2022/07/18 05:29:55;;;;;;;;;;;;;;;17.69;60.83;99668.84;5016863;28;19991;-65
2022/07/18 05:32:20;;;;;;;;;;;;;;;17.64;61.02;99672.59;5003760;28;19933;-64
2022/07/18 05:34:46;;;;;;;;;;;;;;;17.66;61.13;99678.63;4994154;28;19937;-65
2022/07/18 05:37:14;;;;;;;;;;;;;;;17.68;60.99;99670.81;5000433;28;20355;-64
2022/07/18 05:39:39;;;;;;;;;;;;;;;17.75;61.02;99675.03;4991678;28;19944;-64
2022/07/18 05:42:05;;;;;;;;;;;;;;;17.83;61.03;99669.47;5015620;28;20312;-65
2022/07/18 05:44:31;;;;;;;;;;;;;;;17.89;61.10;99666.56;4999726;28;19929;-63
2022/07/18 05:46:57;;;;;;;;;;;;;;;17.92;62.06;99675.00;4989728;28;20045;-63
2022/07/18 05:49:27;;;;;;;;;;;;;;;17.94;62.95;99667.19;5006140;28;19937;-65
2022/07/18 05:51:53;;;;;;;;;;;;;;;17.94;63.66;99663.63;5001607;28;20311;-64
2022/07/18 05:54:20;;;;;;;;;;;;;;;17.85;65.92;99655.34;4978189;28;19945;-64
2022/07/18 05:56:46;;;;;;;;;;;;;;;17.69;67.76;99658.59;5007053;28;19937;-69
2022/07/18 05:59:12;;;;;;;;;;;;;;;17.65;68.66;99652.13;4990405;28;19968;-65
2022/07/18 06:01:38;;;;;;;;;;;;;;;17.69;68.98;99655.84;4990508;28;19968;-66
2022/07/18 06:04:04;;;;;;;;;;;;;;;17.80;68.75;99656.31;5006761;28;20039;-65
2022/07/18 06:06:30;;;;;;;;;;;;;;;17.98;68.25;99659.06;5003701;28;20015;-65
2022/07/18 06:08:55;;;;;;;;;;;;;;;18.08;67.85;99655.97;4997794;28;20602;-66
2022/07/18 06:11:22;;;;;;;;;;;;;;;18.13;67.98;99641.97;5001719;28;20028;-66
2022/07/18 06:13:48;;;;;;;;;;;;;;;18.25;67.46;99640.47;4986008;28;19929;-66
2022/07/18 06:16:14;;;;;;;;;;;;;;;18.36;66.85;99640.91;4988978;28;19976;-67
2022/07/18 06:18:40;;;;;;;;;;;;;;;18.38;66.26;99638.63;4998328;28;19969;-65
2022/07/18 06:21:06;;;;;;;;;;;;;;;18.47;65.94;99633.88;4988465;28;19929;-67
2022/07/18 06:23:33;;;;;;;;;;;;;;;18.56;65.56;99637.41;4970349;28;19934;-66
2022/07/18 06:25:59;;;;;;;;;;;;;;;18.75;65.30;99624.28;4975644;28;19936;-66
2022/07/18 06:28:28;;;;;;;;;;;;;;;18.99;64.21;99635.59;4975445;28;19930;-66
2022/07/18 06:30:54;;;;;;;;;;;;;;;19.18;63.23;99634.31;5014588;28;19929;-66
2022/07/18 06:33:22;;;;;;;;;;;;;;;19.20;62.97;99625.66;5023526;28;20206;-66
2022/07/18 06:35:47;;;;;;;;;;;;;;;19.31;63.10;99635.19;5026214;28;20036;-66
2022/07/18 06:38:13;;;;;;;;;;;;;;;19.38;61.74;99624.38;5025387;28;20209;-65
2022/07/18 06:40:39;;;;;;;;;;;;;;;19.39;61.61;99628.78;5025242;28;20312;-66
2022/07/18 06:43:06;;;;;;;;;;;;;;;19.41;61.18;99629.25;5021122;28;19929;-66
2022/07/18 06:45:33;;;;;;;;;;;;;;;19.56;60.71;99629.78;4988525;28;20316;-66
2022/07/18 06:47:59;;;;;;;;;;;;;;;19.81;60.13;99630.69;5004635;28;19952;-67
2022/07/18 06:50:24;;;;;;;;;;;;;;;20.07;59.53;99624.09;5006361;28;20392;-65
2022/07/18 06:52:50;;;;;;;;;;;;;;;20.22;58.15;99621.81;5005963;28;19930;-66
2022/07/18 06:55:16;;;;;;;;;;;;;;;20.34;57.78;99615.44;4987387;28;19929;-66
2022/07/18 06:57:42;;;;;;;;;;;;;;;20.41;57.95;99615.69;5005090;28;20040;-66
2022/07/18 07:00:09;;;;;;;;;;;;;;;20.55;57.10;99624.47;5006359;28;20036;-67
2022/07/18 07:02:40;;;;;;;;;;;;;;;20.77;56.58;99627.97;5006443;28;20273;-66
2022/07/18 07:05:07;;;;;;;;;;;;;;;20.94;55.97;99615.00;4989279;28;20436;-66
2022/07/18 07:07:32;;;;;;;;;;;;;;;20.98;55.56;99618.69;4971899;28;19999;-65
2022/07/18 07:09:58;;;;;;;;;;;;;;;21.05;55.51;99616.13;4977842;28;20400;-66
2022/07/18 07:12:24;;;;;;;;;;;;;;;21.11;54.94;99619.47;5004107;28;20320;-70
2022/07/18 07:14:49;;;;;;;;;;;;;;;21.21;54.43;99627.34;5004710;28;20396;-67
2022/07/18 07:17:15;;;;;;;;;;;;;;;21.41;53.95;99615.59;4989082;28;19937;-67
2022/07/18 07:19:42;;;;;;;;;;;;;;;21.42;53.28;99629.13;4974618;28;19934;-67
2022/07/18 07:22:08;;;;;;;;;;;;;;;21.40;53.02;99617.53;4988256;28;19952;-67
2022/07/18 07:24:34;;;;;;;;;;;;;;;21.48;52.61;99613.81;5000112;28;19933;-65
2022/07/18 07:27:00;;;;;;;;;;;;;;;21.46;52.62;99624.47;5010930;28;20311;-67
2022/07/18 07:29:25;;;;;;;;;;;;;;;21.47;53.09;99625.28;5006077;28;19929;-67
2022/07/18 07:31:51;;;;;;;;;;;;;;;21.46;52.97;99621.69;5021870;28;20258;-67
2022/07/18 07:34:17;;;;;;;;;;;;;;;21.43;52.53;99627.97;5002307;28;20378;-66
2022/07/18 07:36:51;;;;;;;;;;;;;;;21.32;52.52;99630.44;4936864;28;10000533;-66
2022/07/18 07:39:17;;;;;;;;;;;;;;;21.14;51.96;99632.66;4992638;28;19929;-65
2022/07/18 07:41:43;;;;;;;;;;;;;;;20.95;51.98;99636.88;4995690;28;19941;-66
2022/07/18 07:44:09;;;;;;;;;;;;;;;20.82;51.67;99621.38;4988966;28;19939;-66
2022/07/18 07:46:34;;;;;;;;;;;;;;;20.83;51.39;99623.81;5021082;28;19999;-66
2022/07/18 07:49:00;;;;;;;;;;;;;;;21.05;50.59;99610.56;5018901;28;19929;-66
2022/07/18 07:51:27;;;;;;;;;;;;;;;21.19;50.21;99610.19;5003786;28;19936;-66
2022/07/18 07:53:54;;;;;;;;;;;;;;;21.39;49.27;99605.63;5021214;28;19933;-67
2022/07/18 07:56:20;;;;;;;;;;;;;;;21.50;48.44;99605.94;5023085;28;20534;-66
2022/07/18 07:58:46;;;;;;;;;;;;;;;21.57;48.25;99599.75;5021891;28;20477;-67
2022/07/18 08:01:12;;;;;;;;;;;;;;;21.83;47.79;99592.94;5021822;28;20354;-66
2022/07/18 08:03:38;;;;;;;;;;;;;;;21.99;47.18;99592.13;5018310;28;20395;-66
2022/07/18 08:06:04;;;;;;;;;;;;;;;22.03;46.47;99596.63;4998415;28;19952;-66
2022/07/18 08:08:30;;;;;;;;;;;;;;;22.14;46.45;99590.56;5017955;28;19929;-66
2022/07/18 08:10:57;;;;;;;;;;;;;;;22.42;46.07;99586.88;5006708;28;19941;-66
2022/07/18 08:13:23;;;;;;;;;;;;;;;22.68;45.13;99583.53;5011499;28;19973;-66
2022/07/18 08:15:49;;;;;;;;;;;;;;;22.81;44.38;99581.44;5027044;28;19975;-67
2022/07/18 08:18:14;;;;;;;;;;;;;;;22.92;44.05;99578.88;5019442;28;19965;-65
2022/07/18 08:20:40;;;;;;;;;;;;;;;23.19;43.78;99567.91;5008433;28;20327;-66
2022/07/18 08:23:08;;;;;;;;;;;;;;;23.27;43.66;99572.50;5007151;28;19933;-67
2022/07/18 08:25:35;;;;;;;;;;;;;;;23.28;43.84;99578.88;5009549;28;19930;-64
2022/07/18 08:28:03;;;;;;;;;;;;;;;23.30;43.30;99573.72;5015032;28;20295;-65
2022/07/18 08:30:29;;;;;;;;;;;;;;;23.26;42.86;99576.47;5009356;28;19933;-66
2022/07/18 08:32:54;;;;;;;;;;;;;;;23.23;42.88;99571.56;5026614;28;19929;-65
2022/07/18 08:35:20;;;;;;;;;;;;;;;23.32;42.81;99565.81;5009631;28;20368;-64
2022/07/18 08:37:46;;;;;;;;;;;;;;;23.68;42.32;99562.91;5020093;28;20036;-65
2022/07/18 08:40:12;;;;;;;;;;;;;;;23.86;41.43;99566.81;5004151;28;20044;-65
2022/07/18 08:42:38;;;;;;;;;;;;;;;23.74;41.30;99567.03;5004273;28;19929;-65
2022/07/18 08:45:06;;;;;;;;;;;;;;;23.83;40.44;99569.56;5009911;28;20016;-66
2022/07/18 08:47:32;;;;;;;;;;;;;;;23.73;40.38;99557.84;5002008;28;19964;-65
2022/07/18 08:49:58;;;;;;;;;;;;;;;23.81;40.31;99560.78;5017819;28;19936;-65
2022/07/18 08:52:25;;;;;;;;;;;;;;;24.16;39.37;99554.22;4994205;28;20032;-66
2022/07/18 08:54:50;;;;;;;;;;;;;;;24.64;38.13;99550.97;4998262;28;19929;-65
2022/07/18 08:57:17;;;;;;;;;;;;;;;25.04;37.42;99548.72;4994233;28;19959;-65
2022/07/18 08:59:42;;;;;;;;;;;;;;;25.49;36.35;99546.91;5015779;28;20699;-65
2022/07/18 09:02:10;;;;;;;;;;;;;;;25.98;35.69;99544.19;5026345;28;19940;-65
2022/07/18 09:04:36;;;;;;;;;;;;;;;26.09;34.75;99541.50;5009577;28;19929;-65
2022/07/18 09:07:08;;;;;;;;;;;;;;;25.66;35.76;99538.28;5026921;28;19929;-65
2022/07/18 09:09:34;;;;;;;;;;;;;;;25.40;36.32;99538.00;4993085;28;19929;-65
2022/07/18 09:12:00;;;;;;;;;;;;;;;25.52;35.47;99536.94;4995862;28;19972;-65
2022/07/18 09:14:30;;;;;;;;;;;;;;;25.59;35.54;99534.22;5011550;28;19929;-67
2022/07/18 09:16:59;;;;;;;;;;;;;;;25.67;35.12;99540.69;5007770;28;19929;-65
2022/07/18 09:19:26;;;;;;;;;;;;;;;25.86;34.63;99530.50;5015728;28;19936;-66
2022/07/18 09:21:52;;;;;;;;;;;;;;;25.90;34.29;99531.31;5024911;28;19929;-65
2022/07/18 09:24:18;;;;;;;;;;;;;;;25.85;34.62;99528.88;5025903;28;19936;-66
2022/07/18 09:26:46;;;;;;;;;;;;;;;26.11;34.22;99532.69;5028557;28;20427;-67
2022/07/18 09:29:14;;;;;;;;;;;;;;;26.42;34.07;99528.56;5026591;28;19929;-67
2022/07/18 09:31:47;;;;;;;;;;;;;;;26.84;33.42;99526.41;5025011;28;19929;-66
2022/07/18 09:34:13;;;;;;;;;;;;;;;27.14;33.21;99536.56;5010752;28;19968;-65
2022/07/18 09:36:53;;;;;;;;;;;;;;;27.33;33.29;99534.63;4974217;28;19980;-65
2022/07/18 09:39:19;;;;;;;;;;;;;;;27.06;33.33;99525.72;5006917;28;19929;-66
2022/07/18 09:41:45;;;;;;;;;;;;;;;26.89;33.71;99523.25;5006454;28;19933;-65
2022/07/18 09:44:13;;;;;;;;;;;;;;;26.67;34.57;99513.88;4998005;28;19929;-65
2022/07/18 09:46:58;;;;;;;;;;;;;;;26.71;34.14;99514.72;5018689;28;19975;-64
2022/07/18 09:49:28;;;;;;;;;;;;;;;26.74;34.02;99511.13;5001373;28;19929;-65
2022/07/18 09:52:03;;;;;;;;;;;;;;;27.09;33.06;99511.72;5016475;28;19933;-66
2022/07/18 09:54:34;;;;;;;;;;;;;;;27.18;32.25;99503.72;4950703;28;20364;-65
2022/07/18 09:57:00;;;;;;;;;;;;;;;26.97;32.54;99498.84;4986016;28;20317;-65
2022/07/18 09:59:26;;;;;;;;;;;;;;;26.52;33.28;99500.97;4951244;28;19930;-65
2022/07/18 10:01:52;;;;;;;;;;;;;;;26.22;34.07;99502.81;4647953;28;10000044;-65
2022/07/18 10:04:17;;;;;;;;;;;;;;;26.06;34.61;99491.81;5004962;28;19992;-65
2022/07/18 10:06:44;;;;;;;;;;;;;;;26.03;35.03;99487.00;5004870;28;20032;-65
2022/07/18 10:09:11;;;;;;;;;;;;;;;25.89;34.99;99490.50;5004269;28;19960;-65
2022/07/18 10:11:37;;;;;;;;;;;;;;;25.65;35.14;99491.91;5003337;28;19972;-64
2022/07/18 10:14:03;;;;;;;;;;;;;;;25.61;34.91;99489.06;4994956;28;19933;-65
2022/07/18 10:16:29;;;;;;;;;;;;;;;25.73;34.67;99490.75;5007678;28;20241;-65
2022/07/18 10:18:54;;;;;;;;;;;;;;;25.84;33.73;99483.25;5008821;28;20311;-63
2022/07/18 10:21:20;;;;;;;;;;;;;;;25.89;34.26;99484.91;5006398;28;19976;-65
2022/07/18 10:23:47;;;;;;;;;;;;;;;26.40;33.60;99476.91;5006696;28;19936;-65
2022/07/18 10:26:14;;;;;;;;;;;;;;;27.37;32.43;99475.72;4988597;28;19934;-65
2022/07/18 10:29:04;;;;;;;;;;;;;;;27.78;31.57;99474.59;5006319;28;20440;-65
2022/07/18 10:31:31;;;;;;;;;;;;;;;28.04;31.51;99479.00;4994153;28;19952;-66
2022/07/18 10:34:12;;;;;;;;;;;;;;;28.19;30.88;99479.00;5021496;28;20366;-63
2022/07/18 10:36:38;;;;;;;;;;;;;;;28.73;30.03;99476.88;5024438;28;19936;-65
2022/07/18 10:39:07;;;;;;;;;;;;;;;28.40;30.37;99478.19;5025374;28;20419;-65
2022/07/18 10:41:54;;;;;;;;;;;;;;;28.56;30.16;99467.28;5024795;28;20459;-65
2022/07/18 10:44:32;;;;;;;;;;;;;;;28.23;30.71;99472.19;5024708;28;19968;-65
2022/07/18 10:49:57;;;;;;;;;;;;;;;28.19;29.81;99459.34;5026214;28;19929;-64
2022/07/18 10:52:41;;;;;;;;;;;;;;;29.64;28.02;99445.47;5005582;28;19938;-66
2022/07/18 10:55:27;;;;;;;;;;;;;;;31.33;26.26;99449.69;5009805;28;20383;-65
2022/07/18 10:58:07;;;;;;;;;;;;;;;32.51;23.97;99455.81;5009814;28;19964;-65
2022/07/18 11:00:36;;;;;;;;;;;;;;;33.27;23.26;99444.94;5015650;28;19987;-66
2022/07/18 11:03:03;;;;;;;;;;;;;;;33.76;22.38;99438.50;4987000;28;19929;-65
2022/07/18 11:05:34;;;;;;;;;;;;;;;32.75;23.38;99441.56;4987706;28;19940;-65
2022/07/18 11:08:17;;;;;;;;;;;;;;;31.04;25.56;99441.59;5007143;28;19929;-65
2022/07/18 11:11:03;;;;;;;;;;;;;;;29.70;26.89;99445.81;4974333;28;19929;-67
2022/07/18 11:13:31;;;;;;;;;;;;;;;28.43;28.47;99440.81;5000066;28;20556;-65
2022/07/18 11:16:02;;;;;;;;;;;;;;;27.74;29.47;99436.09;5017765;28;20384;-67
2022/07/18 11:18:30;;;;;;;;;;;;;;;27.11;30.25;99432.75;5002598;28;20031;-64
2022/07/18 11:20:56;;;;;;;;;;;;;;;26.51;31.25;99427.31;5025461;28;19936;-66
2022/07/18 11:23:23;;;;;;;;;;;;;;;26.22;31.76;99421.56;5015215;28;20036;-65
2022/07/18 11:25:49;;;;;;;;;;;;;;;26.12;32.08;99420.28;4989895;28;19972;-66
2022/07/18 11:28:16;;;;;;;;;;;;;;;25.96;32.55;99420.56;5003602;28;19940;-66
2022/07/18 11:30:44;;;;;;;;;;;;;;;26.12;32.63;99419.44;5005935;28;19929;-66
2022/07/18 11:33:22;;;;;;;;;;;;;;;26.22;32.55;99423.53;5006401;28;20408;-67
2022/07/18 11:35:48;;;;;;;;;;;;;;;26.09;33.38;99409.03;4995510;28;20296;-67
2022/07/18 11:38:14;;;;;;;;;;;;;;;25.73;33.64;99415.19;4994594;28;19933;-65
2022/07/18 11:40:46;;;;;;;;;;;;;;;26.25;33.31;99417.97;4986646;28;20351;-66
2022/07/18 11:43:11;;;;;;;;;;;;;;;27.82;30.64;99419.22;5004854;28;19929;-64
2022/07/18 11:45:37;;;;;;;;;;;;;;;28.66;29.35;99409.41;4987769;28;20348;-68
2022/07/18 11:48:03;;;;;;;;;;;;;;;28.27;29.86;99402.72;4992981;28;19961;-66
2022/07/18 11:50:35;;;;;;;;;;;;;;;27.00;31.48;99410.31;4991927;28;20416;-67
2022/07/18 11:53:01;;;;;;;;;;;;;;;25.96;32.28;99405.75;5008037;28;19976;-65
2022/07/18 11:55:31;;;;;;;;;;;;;;;25.05;33.65;99405.75;4990399;28;19929;-67
2022/07/18 11:58:05;;;;;;;;;;;;;;;24.49;34.52;99402.66;4989838;28;20192;-64
2022/07/18 12:00:30;;;;;;;;;;;;;;;23.88;35.55;99397.03;4991020;28;20479;-67
2022/07/18 12:03:06;;;;;;;;;;;;;;;23.46;36.34;99406.31;5000786;28;20008;-66
2022/07/18 12:05:32;;;;;;;;;;;;;;;23.19;36.86;99390.28;4989998;28;20189;-66
2022/07/18 12:07:59;;;;;;;;;;;;;;;22.91;37.43;99396.09;4998852;28;20339;-66
2022/07/18 12:10:26;;;;;;;;;;;;;;;22.75;37.70;99390.63;5020499;28;19929;-67
2022/07/18 12:12:51;;;;;;;;;;;;;;;22.67;38.13;99387.69;5027625;28;19929;-66
2022/07/18 12:15:17;;;;;;;;;;;;;;;22.41;38.54;99393.91;5015215;28;19982;-66
2022/07/18 12:17:44;;;;;;;;;;;;;;;22.23;38.76;99399.88;5000906;28;19933;-65
2022/07/18 12:20:10;;;;;;;;;;;;;;;22.20;38.77;99408.97;5011766;28;19929;-65
2022/07/18 12:22:36;;;;;;;;;;;;;;;22.16;38.81;99405.28;5011276;28;20011;-65
2022/07/18 12:25:04;;;;;;;;;;;;;;;22.04;39.02;99405.41;5009936;28;20785;-66
2022/07/18 12:27:35;;;;;;;;;;;;;;;21.94;38.79;99398.44;4993270;28;19952;-66
2022/07/18 12:30:08;;;;;;;;;;;;;;;21.79;39.25;99405.63;5007958;28;19951;-66
2022/07/18 12:32:51;;;;;;;;;;;;;;;21.61;39.24;99405.97;5007317;28;19933;-66
2022/07/18 12:35:18;;;;;;;;;;;;;;;21.30;43.74;99399.22;4999029;28;19935;-66
2022/07/18 12:37:51;;;;;;;;;;;;;;;20.80;46.56;99413.38;5011757;28;19933;-66
2022/07/18 12:40:19;;;;;;;;;;;;;;;20.35;47.59;99428.31;5028423;28;19960;-66
2022/07/18 12:42:45;;;;;;;;;;;;;;;20.17;48.12;99425.78;5026799;28;19928;-66
2022/07/18 12:45:11;;;;;;;;;;;;;;;20.09;47.84;99433.09;5009309;28;19929;-66
2022/07/18 12:47:37;;;;;;;;;;;;;;;20.08;46.87;99433.44;5009095;28;19929;-66